地図

経路データ

SID SEASON NUMBER BASIN SUBBASIN NAME ISO_TIME NATURE LAT LON WMO_WIND WMO_PRES WMO_AGENCY TRACK_TYPE DIST2LAND LANDFALL IFLAG USA_AGENCY USA_ATCF_ID USA_LAT USA_LON USA_RECORD USA_STATUS USA_WIND USA_PRES USA_SSHS USA_R34_NE USA_R34_SE USA_R34_SW USA_R34_NW USA_R50_NE USA_R50_SE USA_R50_SW USA_R50_NW USA_R64_NE USA_R64_SE USA_R64_SW USA_R64_NW USA_POCI USA_ROCI USA_RMW USA_EYE TOKYO_LAT TOKYO_LON TOKYO_GRADE TOKYO_WIND TOKYO_PRES TOKYO_R50_DIR TOKYO_R50_LONG TOKYO_R50_SHORT TOKYO_R30_DIR TOKYO_R30_LONG TOKYO_R30_SHORT TOKYO_LAND CMA_LAT CMA_LON CMA_CAT CMA_WIND CMA_PRES HKO_LAT HKO_LON HKO_CAT HKO_WIND HKO_PRES NEWDELHI_LAT NEWDELHI_LON NEWDELHI_GRADE NEWDELHI_WIND NEWDELHI_PRES NEWDELHI_CI NEWDELHI_DP NEWDELHI_POCI REUNION_LAT REUNION_LON REUNION_TYPE REUNION_WIND REUNION_PRES REUNION_TNUM REUNION_CI REUNION_RMW REUNION_R34_NE REUNION_R34_SE REUNION_R34_SW REUNION_R34_NW REUNION_R50_NE REUNION_R50_SE REUNION_R50_SW REUNION_R50_NW REUNION_R64_NE REUNION_R64_SE REUNION_R64_SW REUNION_R64_NW BOM_LAT BOM_LON BOM_TYPE BOM_WIND BOM_PRES BOM_TNUM BOM_CI BOM_RMW BOM_R34_NE BOM_R34_SE BOM_R34_SW BOM_R34_NW BOM_R50_NE BOM_R50_SE BOM_R50_SW BOM_R50_NW BOM_R64_NE BOM_R64_SE BOM_R64_SW BOM_R64_NW BOM_ROCI BOM_POCI BOM_EYE BOM_POS_METHOD BOM_PRES_METHOD NADI_LAT NADI_LON NADI_CAT NADI_WIND NADI_PRES WELLINGTON_LAT WELLINGTON_LON WELLINGTON_WIND WELLINGTON_PRES DS824_LAT DS824_LON DS824_STAGE DS824_WIND DS824_PRES TD9636_LAT TD9636_LON TD9636_STAGE TD9636_WIND TD9636_PRES TD9635_LAT TD9635_LON TD9635_WIND TD9635_PRES TD9635_ROCI NEUMANN_LAT NEUMANN_LON NEUMANN_CLASS NEUMANN_WIND NEUMANN_PRES MLC_LAT MLC_LON MLC_CLASS MLC_WIND MLC_PRES USA_GUST BOM_GUST BOM_GUST_PER REUNION_GUST REUNION_GUST_PER USA_SEAHGT USA_SEARAD_NE USA_SEARAD_SE USA_SEARAD_SW USA_SEARAD_NW STORM_SPEED STORM_DIR
1961143N14073 1961 38 NI AS NOT_NAMED 1961-05-22 18:00:00 TS 13.5000 72.7000 main 204 185 O________O____ jtwc_io IO031961 13.5000 72.7000 -1 13.5000 72.7000 TC 5 24
1961143N14073 1961 38 NI AS NOT_NAMED 1961-05-22 21:00:00 TS 13.7200 72.7975 main 185 163 P________P____ IO031961 13.7200 72.7975 -1 13.7200 72.7975 TC 4 26
1961143N14073 1961 38 NI AS NOT_NAMED 1961-05-23 00:00:00 TS 13.9000 72.9000 main 163 148 O________O____ jtwc_io IO031961 13.9000 72.9000 -1 13.9000 72.9000 TC 35 4 35
1961143N14073 1961 38 NI AS NOT_NAMED 1961-05-23 03:00:00 TS 14.0133 73.0067 main 148 133 P________PO___ IO031961 14.0150 73.0075 -1 14.0150 73.0075 TC 35 14.0000 73.0000 2 3 43
1961143N14073 1961 38 NI AS NOT_NAMED 1961-05-23 06:00:00 TS 14.1000 73.0909 main 133 126 O________OP___ jtwc_io IO031961 14.1000 73.1000 -1 14.1000 73.1000 TC 35 14.1000 73.0546 2 2 36
1961143N14073 1961 38 NI AS NOT_NAMED 1961-05-23 09:00:00 TS 14.2000 73.1493 main 126 111 P________PP___ IO031961 14.2000 73.1650 -1 14.2000 73.1650 TC 50 14.2000 73.1075 2 2 25
1961143N14073 1961 38 NI AS NOT_NAMED 1961-05-23 12:00:00 TS 14.3000 73.1855 main 111 106 O________OP___ jtwc_io IO031961 14.3000 73.2000 -1 14.3000 73.2000 TC 65 14.3000 73.1565 2 2 15
1961143N14073 1961 38 NI AS NOT_NAMED 1961-05-23 15:00:00 TS 14.3950 73.2000 main 106 100 P________PO___ IO031961 14.3925 73.2000 -1 14.3925 73.2000 TC 65 14.4000 73.2000 4 2 5
1961143N14073 1961 38 NI AS NOT_NAMED 1961-05-23 18:00:00 TS 14.5010 73.2121 main 100 85 O________OP___ jtwc_io IO031961 14.5000 73.2000 -1 14.5000 73.2000 TC 65 14.5031 73.2363 4 2 13
1961143N14073 1961 38 NI AS NOT_NAMED 1961-05-23 21:00:00 TS 14.6267 73.2550 main 85 72 P________PP___ IO031961 14.6275 73.2500 -1 14.6275 73.2500 TC 65 14.6250 73.2650 4 3 15
1961143N14073 1961 38 NI AS NOT_NAMED 1961-05-24 00:00:00 TS 14.7948 73.2954 main 72 65 O________OP___ jtwc_io IO031961 14.8000 73.3000 -1 14.8000 73.3000 TC 65 14.7844 73.2862 4 4 6
1961143N14073 1961 38 NI AS NOT_NAMED 1961-05-24 03:00:00 TS 15.0083 73.3050 main 65 54 P________PO___ IO031961 15.0125 73.3075 -1 15.0125 73.3075 TC 65 15.0000 73.3000 4 5 358
1961143N14073 1961 38 NI AS NOT_NAMED 1961-05-24 06:00:00 TS 15.3028 73.2729 main 54 44 O________OP___ jtwc_io IO031961 15.3000 73.3000 -1 15.3000 73.3000 TC 65 15.3083 73.2188 4 7 354
1961143N14073 1961 38 NI AS NOT_NAMED 1961-05-24 09:00:00 TS 15.6847 73.2381 main 48 32 P________PP___ IO031961 15.6925 73.2851 -1 15.6925 73.2851 TC 65 15.6691 73.1441 4 8 358
1961143N14073 1961 38 NI AS NOT_NAMED 1961-05-24 12:00:00 TS 16.0818 73.2490 main 32 10 O________OP___ jtwc_io IO031961 16.1000 73.3000 -1 16.1000 73.3000 TC 65 16.0454 73.1471 4 7 6
1961143N14073 1961 38 NI AS NOT_NAMED 1961-05-24 15:00:00 TS 16.4148 73.3068 main 10 0 P________PO___ IO031961 16.4222 73.3103 -1 16.4222 73.3103 TC 50 16.4000 73.3000 4 7 26
1961143N14073 1961 38 NI AS NOT_NAMED 1961-05-24 18:00:00 TS 16.7016 73.5616 main 0 0 O________OP___ jtwc_io IO031961 16.7000 73.5000 -1 16.7000 73.5000 TC 35 16.7041 73.6539 4 9 54
1961143N14073 1961 38 NI AS NOT_NAMED 1961-05-24 21:00:00 TS 16.9588 74.0777 main 0 0 P________PP___ IO031961 16.9558 74.0045 -1 16.9558 74.0045 TC 30 16.9628 74.1754 4 12 67
1961143N14073 1961 38 NI AS NOT_NAMED 1961-05-25 00:00:00 TS 17.1950 74.7546 main 0 0 O________OP___ jtwc_io IO031961 17.2000 74.7000 -1 17.2000 74.7000 TC 25 17.1901 74.8092 4 14 72
1961143N14073 1961 38 NI AS NOT_NAMED 1961-05-25 03:00:00 NR 17.4000 75.5000 main 0 __________O___ IO031961 -1 TC 17.4000 75.5000 1 15 74

IBTrACS Databaseについて

本データベースは、米国NOAAが公開する1842年以降の世界の熱帯低気圧のベストトラックデータアーカイブInternational Best Track Archive for Climate Stewardship (IBTrACS)を、ウェブで閲覧しやすい形式に変換したものです。

最終更新日:2021-10-08